Time;durP1;ratioP1;P1;durP2;ratioP2;P2;SDS_P1;SDS_P2;PMS_P1;PMS_P2;Temp;Humidity;BMP_temperature;BMP_pressure;BME280_temperature;BME280_humidity;BME280_pressure;Samples;Min_cycle;Max_cycle;Signal;HPM_P1;HPM_P2
2023/10/09 00:00:55;;;;;;;5.33;4.83;;;23.90;66.30;;;;;;5093705;28;20465;-69
2023/10/09 00:03:27;;;;;;;4.70;4.30;;;23.90;66.30;;;;;;5089435;28;20432;-69
2023/10/09 00:05:57;;;;;;;5.17;4.67;;;23.90;66.30;;;;;;5092165;28;20646;-69
2023/10/09 00:08:30;;;;;;;5.80;5.20;;;23.90;66.30;;;;;;5090306;28;20434;-69
2023/10/09 00:11:13;;;;;;;6.50;4.83;;;23.90;66.30;;;;;;5073447;28;20463;-69
2023/10/09 00:13:48;;;;;;;5.87;5.30;;;23.90;66.30;;;;;;5087717;28;20632;-69
2023/10/09 00:16:24;;;;;;;6.10;5.50;;;23.90;66.30;;;;;;5085646;28;21377;-69
2023/10/09 00:18:53;;;;;;;4.90;4.33;;;23.90;66.30;;;;;;5067383;28;20451;-70
2023/10/09 00:21:23;;;;;;;5.00;4.60;;;23.90;66.30;;;;;;5085541;28;20450;-70
2023/10/09 00:23:55;;;;;;;5.17;4.67;;;23.90;66.30;;;;;;5088607;28;20464;-69
2023/10/09 00:26:25;;;;;;;5.70;5.23;;;23.90;66.30;;;;;;5080517;28;21098;-69
2023/10/09 00:28:53;;;;;;;5.77;5.17;;;23.90;66.30;;;;;;5091865;28;20512;-69
2023/10/09 00:31:30;;;;;;;4.93;4.43;;;23.90;66.30;;;;;;5087650;28;20530;-70
2023/10/09 00:34:07;;;;;;;8.70;5.43;;;23.90;66.30;;;;;;5071052;28;20800;-69
2023/10/09 00:36:49;;;;;;;4.97;4.20;;;23.90;66.30;;;;;;5088894;28;20445;-69
2023/10/09 00:39:33;;;;;;;6.03;5.07;;;23.90;66.30;;;;;;5071608;28;20500;-69
2023/10/09 00:42:06;;;;;;;4.13;3.77;;;23.90;66.30;;;;;;5071295;28;20455;-69
2023/10/09 00:44:38;;;;;;;5.77;4.60;;;23.90;66.30;;;;;;5085551;28;20453;-68
2023/10/09 00:47:20;;;;;;;4.63;4.03;;;23.90;66.30;;;;;;5090115;28;20442;-69
2023/10/09 00:49:59;;;;;;;5.33;4.60;;;23.90;66.30;;;;;;5080519;28;20962;-69
2023/10/09 00:52:36;;;;;;;5.33;4.80;;;23.90;66.30;;;;;;5088402;28;20501;-68
2023/10/09 00:55:13;;;;;;;4.97;4.47;;;23.90;66.30;;;;;;5088720;28;20501;-69
2023/10/09 00:57:56;;;;;;;7.50;5.63;;;23.90;66.30;;;;;;5088430;28;20426;-69
2023/10/09 01:00:32;;;;;;;5.43;4.40;;;23.90;66.30;;;;;;5089717;28;20522;-69
2023/10/09 01:03:18;;;;;;;5.30;4.40;;;23.80;66.30;;;;;;5066613;28;20451;-69
2023/10/09 01:05:56;;;;;;;6.13;5.53;;;23.80;66.30;;;;;;5087791;28;20479;-69
2023/10/09 01:08:43;;;;;;;5.80;4.40;;;23.80;66.30;;;;;;5082754;28;20464;-69
2023/10/09 01:11:18;;;;;;;5.17;4.70;;;23.80;66.30;;;;;;5087405;28;20450;-69
2023/10/09 01:13:53;;;;;;;4.23;3.93;;;23.80;66.30;;;;;;5089096;28;20535;-68
2023/10/09 01:16:23;;;;;;;4.50;4.10;;;23.80;66.30;;;;;;5085852;28;20452;-70
2023/10/09 01:18:56;;;;;;;5.07;3.97;;;23.80;66.30;;;;;;5088259;28;20500;-70
2023/10/09 01:21:26;;;;;;;4.43;4.03;;;23.80;66.30;;;;;;5083975;28;20476;-69
2023/10/09 01:24:08;;;;;;;6.30;4.90;;;23.80;66.30;;;;;;5080816;28;21026;-69
2023/10/09 01:26:44;;;;;;;4.40;4.00;;;23.80;66.30;;;;;;5072557;28;20504;-69
2023/10/09 01:29:18;;;;;;;4.57;4.27;;;23.80;66.30;;;;;;5059257;28;21032;-69
2023/10/09 01:31:54;;;;;;;4.27;3.97;;;23.80;66.30;;;;;;5079999;28;20446;-69
2023/10/09 01:34:34;;;;;;;5.20;4.70;;;23.80;66.40;;;;;;5080996;28;20483;-69
2023/10/09 01:37:05;;;;;;;5.53;3.77;;;23.80;66.30;;;;;;5072389;28;20476;-69
2023/10/09 01:39:40;;;;;;;4.40;3.97;;;23.80;66.30;;;;;;5079250;28;20446;-70
2023/10/09 01:42:09;;;;;;;4.43;3.87;;;23.80;66.40;;;;;;5090492;28;20437;-69
2023/10/09 01:44:43;;;;;;;5.63;4.37;;;23.80;66.40;;;;;;5086963;28;20470;-68
2023/10/09 01:47:17;;;;;;;5.10;4.30;;;23.80;66.40;;;;;;5070475;28;20454;-68
2023/10/09 01:49:49;;;;;;;6.30;4.83;;;23.80;66.40;;;;;;5052269;28;20446;-68
2023/10/09 01:52:18;;;;;;;5.10;4.30;;;23.80;66.40;;;;;;5056121;28;20440;-68
2023/10/09 01:54:49;;;;;;;4.43;4.03;;;23.80;66.50;;;;;;5072882;28;20901;-69
2023/10/09 01:57:22;;;;;;;3.80;3.37;;;23.80;66.50;;;;;;5086724;28;20543;-69
2023/10/09 01:59:53;;;;;;;4.87;3.87;;;23.80;66.50;;;;;;5076011;28;20961;-69
2023/10/09 02:02:26;;;;;;;4.40;4.00;;;23.80;66.50;;;;;;5076845;28;20458;-69
2023/10/09 02:05:09;;;;;;;4.30;3.90;;;23.80;66.50;;;;;;5084060;28;20450;-69
2023/10/09 02:07:51;;;;;;;5.60;4.27;;;23.80;66.50;;;;;;5072837;28;20452;-70
2023/10/09 02:10:32;;;;;;;4.63;4.10;;;23.80;66.50;;;;;;5084712;28;20533;-69
2023/10/09 02:13:06;;;;;;;3.97;3.60;;;23.70;66.50;;;;;;5094839;28;21004;-69
2023/10/09 02:15:45;;;;;;;4.30;3.90;;;23.70;66.50;;;;;;5080366;28;20881;-69
2023/10/09 02:18:19;;;;;;;3.93;3.60;;;23.70;66.50;;;;;;5071893;28;20963;-70
2023/10/09 02:21:00;;;;;;;5.00;4.10;;;23.70;66.50;;;;;;5087326;28;20468;-68
2023/10/09 02:23:39;;;;;;;4.30;3.90;;;23.70;66.50;;;;;;5055731;28;20826;-69
2023/10/09 02:26:10;;;;;;;5.33;3.80;;;23.70;66.50;;;;;;5090425;28;20449;-69
2023/10/09 02:28:40;;;;;;;4.77;4.20;;;23.70;66.50;;;;;;5070627;28;20484;-69
2023/10/09 02:31:13;;;;;;;4.57;3.63;;;23.70;66.50;;;;;;5070538;28;20449;-68
2023/10/09 02:33:41;;;;;;;4.07;3.77;;;23.70;66.50;;;;;;5090306;28;20481;-69
2023/10/09 02:36:13;;;;;;;4.97;4.47;;;23.70;66.50;;;;;;5074891;28;21008;-68
2023/10/09 02:38:42;;;;;;;4.17;3.77;;;23.70;66.40;;;;;;5069099;28;20804;-68
2023/10/09 02:41:28;;;;;;;4.37;3.97;;;23.70;66.40;;;;;;5079252;28;20556;-68
2023/10/09 02:43:58;;;;;;;4.10;3.80;;;23.70;66.50;;;;;;5053560;28;20792;-69
2023/10/09 02:46:35;;;;;;;4.87;4.47;;;23.70;66.30;;;;;;5054244;28;20502;-69
2023/10/09 02:49:06;;;;;;;3.60;3.30;;;23.70;66.40;;;;;;5090261;28;20755;-70
2023/10/09 02:51:41;;;;;;;4.80;4.30;;;23.70;66.50;;;;;;5061760;28;20455;-69
2023/10/09 02:54:26;;;;;;;6.77;4.23;;;23.70;66.50;;;;;;5074521;28;20446;-69
2023/10/09 02:57:05;;;;;;;4.67;3.80;;;23.70;66.50;;;;;;5091708;28;20458;-69
2023/10/09 02:59:33;;;;;;;4.23;3.43;;;23.70;66.50;;;;;;5088629;28;20435;-69
2023/10/09 03:02:04;;;;;;;6.27;3.73;;;23.70;66.40;;;;;;5089402;28;20486;-69
2023/10/09 03:04:32;;;;;;;5.97;4.97;;;23.70;66.40;;;;;;5081261;28;20452;-69
2023/10/09 03:07:03;;;;;;;4.57;3.70;;;23.70;66.40;;;;;;5087192;28;20774;-69
2023/10/09 03:09:32;;;;;;;4.27;3.83;;;23.70;66.40;;;;;;5085802;28;20450;-69
2023/10/09 03:12:03;;;;;;;4.57;4.17;;;23.70;66.30;;;;;;5089240;28;20452;-70
2023/10/09 03:14:35;;;;;;;3.87;3.53;;;23.70;66.40;;;;;;5090155;28;20449;-69
2023/10/09 03:17:03;;;;;;;5.10;4.23;;;23.70;66.50;;;;;;5084668;28;20527;-69
2023/10/09 03:19:37;;;;;;;6.20;3.73;;;23.70;66.50;;;;;;5078420;28;20458;-69
2023/10/09 03:22:09;;;;;;;4.20;3.80;;;23.70;66.50;;;;;;5086283;28;20466;-68
2023/10/09 03:24:39;;;;;;;4.80;4.40;;;23.70;66.50;;;;;;5089626;28;20463;-69
2023/10/09 03:27:08;;;;;;;4.13;3.73;;;23.70;66.50;;;;;;5092734;28;20530;-69
2023/10/09 03:29:37;;;;;;;3.93;3.57;;;23.70;66.50;;;;;;5072493;28;20445;-69
2023/10/09 03:32:06;;;;;;;4.13;3.63;;;23.70;66.50;;;;;;5086557;28;20484;-69
2023/10/09 03:34:35;;;;;;;4.30;3.90;;;23.70;66.50;;;;;;5087466;28;20513;-69
2023/10/09 03:37:04;;;;;;;5.30;4.20;;;23.60;66.50;;;;;;5087058;28;20463;-69
2023/10/09 03:39:38;;;;;;;4.80;4.40;;;23.60;66.50;;;;;;5095448;28;20475;-69
2023/10/09 03:42:11;;;;;;;3.77;3.40;;;23.60;66.50;;;;;;5086101;28;20473;-69
2023/10/09 03:44:43;;;;;;;3.80;3.50;;;23.60;66.50;;;;;;5092858;28;20488;-69
2023/10/09 03:47:12;;;;;;;4.33;3.93;;;23.60;66.50;;;;;;5086213;28;21000;-69
2023/10/09 03:49:40;;;;;;;6.67;4.10;;;23.70;66.50;;;;;;5108760;28;20551;-69
2023/10/09 03:52:08;;;;;;;4.57;4.17;;;23.60;66.50;;;;;;5092861;28;20507;-69
2023/10/09 03:54:38;;;;;;;5.83;4.43;;;23.60;66.50;;;;;;5092690;28;20433;-69
2023/10/09 03:57:08;;;;;;;4.10;3.70;;;23.60;66.50;;;;;;5092507;28;20429;-69
2023/10/09 03:59:37;;;;;;;7.10;3.97;;;23.60;66.50;;;;;;5092785;28;20434;-69
2023/10/09 04:02:05;;;;;;;4.87;3.70;;;23.60;66.50;;;;;;5078350;28;20466;-68
2023/10/09 04:04:33;;;;;;;4.10;3.70;;;23.60;66.50;;;;;;5088460;28;20466;-69
2023/10/09 04:07:02;;;;;;;5.27;4.13;;;23.60;66.50;;;;;;5088509;28;20468;-68
2023/10/09 04:09:39;;;;;;;4.57;4.07;;;23.60;66.50;;;;;;5087810;28;20542;-68
2023/10/09 04:12:24;;;;;;;5.40;3.97;;;23.60;66.50;;;;;;5088007;28;20461;-69
2023/10/09 04:14:57;;;;;;;4.40;3.60;;;23.60;66.50;;;;;;5077065;28;20870;-68
2023/10/09 04:17:36;;;;;;;7.07;4.83;;;23.60;66.60;;;;;;5079533;28;20876;-69
2023/10/09 04:22:51;;;;;;;4.03;3.63;;;23.70;66.60;;;;;;5083611;28;20464;-69
2023/10/09 04:25:25;;;;;;;5.60;4.57;;;23.70;66.60;;;;;;5062448;28;20805;-69
2023/10/09 04:28:09;;;;;;;7.27;3.67;;;23.70;66.60;;;;;;5074075;28;20455;-70
2023/10/09 04:30:42;;;;;;;4.73;4.20;;;23.70;66.50;;;;;;5084644;28;20462;-69
2023/10/09 04:33:28;;;;;;;5.40;4.20;;;23.70;66.50;;;;;;5082551;28;20489;-69
2023/10/09 04:36:21;;;;;;;6.40;4.27;;;23.70;66.50;;;;;;5087960;28;20472;-69
2023/10/09 04:39:15;;;;;;;4.83;3.90;;;23.70;66.50;;;;;;5089733;28;20956;-69
2023/10/09 04:41:59;;;;;;;3.93;3.57;;;23.70;66.50;;;;;;5081271;28;20542;-69
2023/10/09 04:44:35;;;;;;;3.63;3.33;;;23.70;66.50;;;;;;5072159;28;20449;-69
2023/10/09 04:47:25;;;;;;;8.83;3.67;;;23.70;66.40;;;;;;5076403;28;20474;-70
2023/10/09 04:50:02;;;;;;;5.60;4.03;;;23.70;66.40;;;;;;5091908;28;20475;-69
2023/10/09 04:55:18;;;;;;;4.03;3.63;;;23.80;66.40;;;;;;5078389;28;20455;-68
2023/10/09 04:58:00;;;;;;;5.00;4.10;;;23.70;66.40;;;;;;5083459;28;20466;-68
2023/10/09 05:01:02;;;;;;;5.10;3.40;;;23.70;66.40;;;;;;5078281;28;20458;-68
2023/10/09 05:03:42;;;;;;;4.20;3.60;;;23.70;66.40;;;;;;5080525;28;20801;-70
2023/10/09 05:06:42;;;;;;;6.57;4.10;;;23.70;66.50;;;;;;5076574;28;20586;-70
2023/10/09 05:09:13;;;;;;;3.83;3.40;;;23.70;66.50;;;;;;5083601;28;20453;-69
2023/10/09 05:11:54;;;;;;;5.13;4.00;;;23.70;66.60;;;;;;5083152;28;20511;-70
2023/10/09 05:14:27;;;;;;;6.33;4.57;;;23.70;66.70;;;;;;5082853;28;20496;-71
2023/10/09 05:17:01;;;;;;;6.83;4.40;;;23.70;66.70;;;;;;5077631;28;20451;-69
2023/10/09 05:19:54;;;;;;;5.00;3.80;;;23.70;66.80;;;;;;5088432;28;20487;-70
2023/10/09 05:22:36;;;;;;;5.83;4.03;;;23.70;66.70;;;;;;5079854;28;21003;-70
2023/10/09 05:25:15;;;;;;;5.30;4.03;;;23.70;66.90;;;;;;5076333;28;20554;-69
2023/10/09 05:27:50;;;;;;;4.17;3.50;;;23.70;66.90;;;;;;5076065;28;20916;-68
2023/10/09 05:30:33;;;;;;;4.17;3.77;;;23.70;66.90;;;;;;5078810;28;20508;-69
2023/10/09 05:36:05;;;;;;;4.77;3.83;;;23.70;66.90;;;;;;5084957;28;20932;-68
2023/10/09 05:38:44;;;;;;;3.93;3.23;;;23.70;67.10;;;;;;5080708;28;20910;-68
2023/10/09 05:47:04;;;;;;;3.87;3.53;;;23.70;67.10;;;;;;5083485;28;20458;-68
2023/10/09 05:49:46;;;;;;;4.80;3.70;;;23.70;67.10;;;;;;5076852;28;20513;-68
2023/10/09 06:03:48;;;;;;;4.83;4.33;;;23.70;67.10;;;;;;5076819;28;20474;-68
2023/10/09 06:06:32;;;;;;;5.07;3.67;;;23.70;67.10;;;;;;5082223;28;20442;-68
2023/10/09 06:11:55;;;;;;;3.30;3.00;;;23.70;66.90;;;;;;5083049;28;20446;-68
2023/10/09 06:14:25;;;;;;;6.10;4.17;;;23.70;66.80;;;;;;5079733;28;20490;-68
2023/10/09 06:17:22;;;;;;;5.10;3.47;;;23.70;66.80;;;;;;5072992;28;20455;-68
2023/10/09 06:19:58;;;;;;;7.57;5.20;;;23.70;66.80;;;;;;5090231;28;20436;-68
2023/10/09 06:25:17;;;;;;;9.90;6.50;;;23.70;69.30;;;;;;5070637;28;20864;-68
2023/10/09 06:27:57;;;;;;;11.03;5.43;;;23.70;69.20;;;;;;5076246;28;20461;-69
2023/10/09 06:30:26;;;;;;;13.77;6.53;;;23.70;69.20;;;;;;5069649;28;20465;-68
2023/10/09 06:33:20;;;;;;;14.43;6.27;;;23.70;69.00;;;;;;5073479;28;20461;-69
2023/10/09 06:35:53;;;;;;;9.57;5.67;;;23.70;68.60;;;;;;5074967;28;20486;-69
2023/10/09 06:38:23;;;;;;;10.00;5.00;;;23.80;68.40;;;;;;5083726;28;20554;-69
2023/10/09 06:43:42;;;;;;;14.87;6.50;;;23.70;68.20;;;;;;5089017;28;20467;-68
2023/10/09 06:49:28;;;;;;;9.03;5.70;;;23.70;68.30;;;;;;5075216;28;20448;-68
2023/10/09 06:51:55;;;;;;;10.50;5.07;;;23.80;68.30;;;;;;5083402;28;20465;-68
2023/10/09 06:54:29;;;;;;;14.10;5.47;;;23.70;68.40;;;;;;5079813;28;20978;-69
2023/10/09 07:00:15;;;;;;;9.57;4.80;;;23.80;68.20;;;;;;5071100;28;20489;-68
2023/10/09 07:02:45;;;;;;;9.93;5.30;;;23.80;68.30;;;;;;5076911;28;20486;-68
2023/10/09 07:05:17;;;;;;;7.37;4.93;;;23.80;68.30;;;;;;5078859;28;20511;-69
2023/10/09 07:07:54;;;;;;;7.37;4.53;;;23.70;68.30;;;;;;5079207;28;20461;-68
2023/10/09 07:10:32;;;;;;;5.30;4.57;;;23.70;68.20;;;;;;5081883;28;20914;-69
2023/10/09 07:13:02;;;;;;;7.87;4.83;;;23.80;68.30;;;;;;5081785;28;20462;-69
2023/10/09 07:18:23;;;;;;;9.13;6.50;;;23.70;68.30;;;;;;5086052;28;20458;-68
2023/10/09 07:21:01;;;;;;;9.00;5.30;;;23.70;68.10;;;;;;5082298;28;20466;-68
2023/10/09 07:23:32;;;;;;;9.17;4.43;;;23.80;68.20;;;;;;5085776;28;20535;-68
2023/10/09 07:26:36;;;;;;;8.93;4.80;;;23.80;68.10;;;;;;5084172;28;20449;-68
2023/10/09 07:32:12;;;;;;;9.83;6.40;;;23.80;68.10;;;;;;5075474;28;20473;-67
2023/10/09 07:37:34;;;;;;;10.13;5.23;;;23.80;68.10;;;;;;5071191;28;20463;-68
2023/10/09 07:40:07;;;;;;;12.23;4.73;;;23.80;67.90;;;;;;5084479;28;20454;-69
2023/10/09 07:42:44;;;;;;;17.40;6.17;;;23.80;67.80;;;;;;5087778;28;20553;-70
2023/10/09 07:45:54;;;;;;;12.30;4.97;;;23.80;71.10;;;;;;5073796;28;20550;-70
2023/10/09 07:48:02;;;;;;;8.07;5.33;;;23.80;69.50;;;;;;5082043;28;21009;-78
2023/10/09 07:50:48;;;;;;;8.73;5.43;;;23.80;70.00;;;;;;5077572;28;20572;-77
2023/10/09 07:53:18;;;;;;;8.47;4.97;;;23.80;69.80;;;;;;5083790;28;20505;-77
2023/10/09 07:55:54;;;;;;;11.63;5.13;;;23.90;69.70;;;;;;5079391;28;20505;-79
2023/10/09 07:58:25;;;;;;;11.17;6.23;;;23.90;69.70;;;;;;5076400;28;20451;-68
2023/10/09 08:01:08;;;;;;;11.73;5.40;;;23.90;69.70;;;;;;5063589;28;21912;-66
2023/10/09 08:03:36;;;;;;;13.17;5.07;;;23.90;69.90;;;;;;5078800;28;20517;-67
2023/10/09 08:06:37;;;;;;;10.93;5.77;;;23.90;69.60;;;;;;5069831;28;20452;-66
2023/10/09 08:14:45;;;;;;;11.20;6.00;;;23.90;69.60;;;;;;5086450;28;20462;-66
2023/10/09 08:17:20;;;;;;;10.63;5.20;;;23.90;69.60;;;;;;5083962;28;20554;-67
2023/10/09 08:19:53;;;;;;;10.10;5.37;;;24.00;69.70;;;;;;5084326;28;20484;-67
2023/10/09 08:22:42;;;;;;;6.30;4.67;;;24.00;69.70;;;;;;5086014;28;20456;-66
2023/10/09 08:28:36;;;;;;;8.60;4.97;;;24.00;69.70;;;;;;5087179;28;20935;-67
2023/10/09 08:31:02;;;;;;;8.60;4.90;;;24.00;69.70;;;;;;5076468;28;20713;-67
2023/10/09 08:33:44;;;;;;;11.73;5.77;;;24.00;69.60;;;;;;5072285;28;20490;-66
2023/10/09 08:36:15;;;;;;;11.03;5.00;;;24.10;69.60;;;;;;5064164;28;20519;-68
2023/10/09 08:38:44;;;;;;;14.03;6.10;;;24.10;69.50;;;;;;5065365;28;20464;-70
2023/10/09 08:41:19;;;;;;;11.37;5.50;;;24.20;69.60;;;;;;5066407;28;20454;-76
2023/10/09 08:43:53;;;;;;;6.20;4.23;;;24.20;69.30;;;;;;5065181;28;20467;-75
2023/10/09 08:46:26;;;;;;;7.00;4.47;;;24.20;69.30;;;;;;5048876;28;20466;-76
2023/10/09 08:48:56;;;;;;;13.10;5.27;;;24.20;69.50;;;;;;5061367;28;20584;-75
2023/10/09 08:51:27;;;;;;;7.73;4.23;;;24.20;69.50;;;;;;5048975;28;20818;-74
2023/10/09 08:53:55;;;;;;;9.30;5.83;;;24.20;69.50;;;;;;5059113;28;20511;-75
2023/10/09 08:56:24;;;;;;;8.73;5.73;;;24.20;69.60;;;;;;5060709;28;20451;-75
2023/10/09 08:58:54;;;;;;;10.40;5.17;;;24.20;69.60;;;;;;5042449;28;20507;-75
2023/10/09 09:01:24;;;;;;;11.23;4.77;;;24.20;69.40;;;;;;5064433;28;20468;-75
2023/10/09 09:03:56;;;;;;;8.17;4.73;;;24.20;69.50;;;;;;5065000;28;20473;-76
2023/10/09 09:06:24;;;;;;;7.37;5.20;;;24.20;69.50;;;;;;5047514;28;20838;-76
2023/10/09 09:08:59;;;;;;;9.90;4.83;;;24.30;69.40;;;;;;5062745;28;20477;-76
2023/10/09 09:11:35;;;;;;;9.07;5.20;;;24.30;69.40;;;;;;5042811;28;20456;-75
2023/10/09 09:14:05;;;;;;;8.63;5.37;;;24.30;69.30;;;;;;5062721;28;20460;-76
2023/10/09 09:16:36;;;;;;;8.90;4.83;;;24.30;69.30;;;;;;5069543;28;21277;-73
2023/10/09 09:19:17;;;;;;;6.77;4.70;;;24.30;69.30;;;;;;5067053;28;20969;-73
2023/10/09 09:21:54;;;;;;;8.43;4.73;;;24.30;69.20;;;;;;5066668;28;20519;-76
2023/10/09 09:24:33;;;;;;;7.20;5.27;;;24.40;69.20;;;;;;5063227;28;20857;-75
2023/10/09 09:27:18;;;;;;;8.17;5.07;;;24.40;69.00;;;;;;5059173;28;20496;-74
2023/10/09 09:29:54;;;;;;;5.23;4.73;;;24.40;69.10;;;;;;5058003;28;20487;-76
2023/10/09 09:32:35;;;;;;;7.53;4.33;;;24.40;69.00;;;;;;5062329;28;20515;-76
2023/10/09 09:35:05;;;;;;;7.80;4.17;;;24.40;68.90;;;;;;5062271;28;20971;-76
2023/10/09 09:37:50;;;;;;;7.20;4.00;;;24.40;68.90;;;;;;5065263;28;20474;-75
2023/10/09 09:40:29;;;;;;;7.67;4.77;;;24.40;68.90;;;;;;5067248;28;20510;-74
2023/10/09 09:43:05;;;;;;;10.97;5.30;;;24.50;69.00;;;;;;5062813;28;20465;-75
2023/10/09 09:45:35;;;;;;;5.43;4.47;;;24.50;68.90;;;;;;5068355;28;20472;-76
2023/10/09 09:48:06;;;;;;;6.50;4.30;;;24.50;68.80;;;;;;5068336;28;20462;-74
2023/10/09 09:50:43;;;;;;;6.80;4.10;;;24.50;68.80;;;;;;5066012;28;20489;-74
2023/10/09 09:53:16;;;;;;;6.67;4.63;;;24.50;68.80;;;;;;5068306;28;20540;-75
2023/10/09 09:55:55;;;;;;;7.47;4.50;;;24.50;68.80;;;;;;5062090;28;20541;-76
2023/10/09 09:58:27;;;;;;;7.80;4.80;;;24.50;68.70;;;;;;5065953;28;20507;-74
2023/10/09 10:01:08;;;;;;;6.93;4.60;;;24.50;68.60;;;;;;5062015;28;21026;-74
2023/10/09 10:03:43;;;;;;;4.87;3.93;;;24.50;68.60;;;;;;5061738;28;20470;-74
2023/10/09 10:06:14;;;;;;;8.87;4.40;;;24.50;68.60;;;;;;5061536;28;20451;-75
2023/10/09 10:08:43;;;;;;;6.33;4.30;;;24.60;68.50;;;;;;5068711;28;20457;-74
2023/10/09 10:11:45;;;;;;;7.73;5.20;;;24.60;68.40;;;;;;5064720;28;20448;-76
2023/10/09 10:14:21;;;;;;;7.17;4.00;;;24.60;68.40;;;;;;5065013;28;20458;-75
2023/10/09 10:17:16;;;;;;;4.70;3.93;;;24.60;68.50;;;;;;5059894;28;20463;-75
2023/10/09 10:20:26;;;;;;;4.20;3.60;;;24.50;68.50;;;;;;5065207;28;20482;-76
2023/10/09 10:23:17;;;;;;;3.83;3.43;;;24.60;68.00;;;;;;5059420;28;21024;-75
2023/10/09 10:25:49;;;;;;;6.60;4.37;;;24.60;67.80;;;;;;5067194;28;20990;-76
2023/10/09 10:28:28;;;;;;;4.97;4.20;;;24.60;67.70;;;;;;5062662;28;20545;-75
2023/10/09 10:31:00;;;;;;;6.27;3.80;;;24.70;67.50;;;;;;5069092;28;20808;-75
2023/10/09 10:34:10;;;;;;;8.33;4.27;;;24.70;67.60;;;;;;5080434;28;20488;-76
2023/10/09 10:36:44;;;;;;;6.40;4.20;;;24.70;67.50;;;;;;5089930;28;20863;-76
2023/10/09 10:39:21;;;;;;;10.80;3.97;;;24.60;67.40;;;;;;5091752;28;20455;-76
2023/10/09 10:41:56;;;;;;;4.83;4.43;;;24.70;67.40;;;;;;5081163;28;20467;-76
2023/10/09 10:44:38;;;;;;;6.17;4.17;;;24.70;67.40;;;;;;5084150;27;21119;-75
2023/10/09 10:47:22;;;;;;;6.43;4.20;;;24.70;67.40;;;;;;5105916;28;20905;-76
2023/10/09 10:49:52;;;;;;;6.70;3.90;;;24.80;67.50;;;;;;5105737;28;20471;-76
2023/10/09 10:52:35;;;;;;;4.40;3.30;;;24.90;67.10;;;;;;5101668;28;20460;-76
2023/10/09 10:55:48;;;;;;;5.77;4.00;;;24.90;66.90;;;;;;5109166;27;20461;-76
2023/10/09 10:58:23;;;;;;;5.60;4.00;;;25.00;66.80;;;;;;5105365;28;20465;-76
2023/10/09 11:03:57;;;;;;;3.97;3.60;;;24.90;66.90;;;;;;5083416;28;20975;-76
2023/10/09 11:06:35;;;;;;;6.60;3.63;;;24.80;66.90;;;;;;5107082;28;20530;-75
2023/10/09 11:11:50;;;;;;;3.93;2.93;;;24.80;66.90;;;;;;5107444;28;20476;-75
2023/10/09 11:14:23;;;;;;;4.40;3.97;;;24.80;66.90;;;;;;5082811;28;20484;-75
2023/10/09 11:16:57;;;;;;;4.90;3.67;;;24.80;66.80;;;;;;5102263;27;20459;-75
2023/10/09 11:19:31;;;;;;;6.27;4.40;;;24.80;66.80;;;;;;5106427;28;20457;-75
2023/10/09 11:24:47;;;;;;;6.13;3.70;;;24.70;66.90;;;;;;5075067;28;20517;-76
2023/10/09 11:27:24;;;;;;;5.67;3.60;;;24.70;67.00;;;;;;5099388;28;20823;-76
2023/10/09 11:29:55;;;;;;;4.13;3.73;;;24.70;67.00;;;;;;5097303;28;20497;-76
2023/10/09 11:32:25;;;;;;;4.60;3.63;;;24.70;66.90;;;;;;5103353;27;21355;-76
2023/10/09 11:35:14;;;;;;;4.47;3.50;;;24.80;66.80;;;;;;5096358;27;20566;-75
2023/10/09 11:37:43;;;;;;;5.13;3.80;;;24.80;66.80;;;;;;5098257;28;20455;-75
2023/10/09 11:40:33;;;;;;;6.37;3.20;;;24.90;66.60;;;;;;5094139;28;20573;-74
2023/10/09 11:43:03;;;;;;;4.60;4.10;;;24.80;66.80;;;;;;5101284;27;20465;-75
2023/10/09 11:45:37;;;;;;;7.80;3.70;;;24.80;67.10;;;;;;5106172;28;20538;-74
2023/10/09 11:48:26;;;;;;;4.10;3.70;;;24.80;67.30;;;;;;5106091;28;20544;-76
2023/10/09 11:50:55;;;;;;;8.57;4.57;;;24.70;67.40;;;;;;5099970;28;20586;-76
2023/10/09 11:53:36;;;;;;;5.50;3.80;;;24.70;67.60;;;;;;5106639;28;21305;-76
2023/10/09 11:56:09;;;;;;;4.33;3.47;;;24.70;67.60;;;;;;5104163;28;20455;-74
2023/10/09 11:58:40;;;;;;;5.13;4.27;;;24.70;67.70;;;;;;5106689;28;20876;-74
2023/10/09 12:01:17;;;;;;;4.73;3.57;;;24.70;67.70;;;;;;5086725;28;20473;-74
2023/10/09 12:03:49;;;;;;;6.37;3.90;;;24.70;67.70;;;;;;5107024;28;20453;-75
2023/10/09 12:06:22;;;;;;;5.70;3.93;;;24.70;67.70;;;;;;5103389;28;20477;-76
2023/10/09 12:08:51;;;;;;;9.23;4.13;;;24.80;67.70;;;;;;5104554;28;20455;-74
2023/10/09 12:11:28;;;;;;;8.73;3.80;;;24.80;67.70;;;;;;5104110;28;20451;-74
2023/10/09 12:13:58;;;;;;;5.10;3.77;;;24.80;67.70;;;;;;5100907;28;20457;-76
2023/10/09 12:16:27;;;;;;;6.13;3.70;;;24.80;67.70;;;;;;5105092;28;20446;-74
2023/10/09 12:18:57;;;;;;;7.63;3.80;;;24.80;67.70;;;;;;5102669;28;20556;-73
2023/10/09 12:21:27;;;;;;;7.67;4.10;;;24.90;67.70;;;;;;5106010;28;20451;-76
2023/10/09 12:23:57;;;;;;;5.37;3.60;;;24.90;67.50;;;;;;5105227;28;20618;-76
2023/10/09 12:26:34;;;;;;;5.23;3.27;;;25.00;67.30;;;;;;5108071;28;20548;-76
2023/10/09 12:29:03;;;;;;;5.50;4.37;;;25.00;67.20;;;;;;5102906;28;20534;-75
2023/10/09 12:31:35;;;;;;;4.93;4.20;;;25.00;67.20;;;;;;5107824;28;20457;-75
2023/10/09 12:34:05;;;;;;;7.37;5.87;;;25.00;67.10;;;;;;5104618;28;20491;-74
2023/10/09 12:36:37;;;;;;;6.00;3.83;;;25.00;67.20;;;;;;5107222;28;20797;-74
2023/10/09 12:39:05;;;;;;;4.37;4.00;;;25.00;67.20;;;;;;5100807;28;20926;-75
2023/10/09 12:41:41;;;;;;;6.10;4.23;;;25.00;67.10;;;;;;5100759;28;21605;-76
2023/10/09 12:44:14;;;;;;;10.10;3.77;;;25.00;67.20;;;;;;5106670;28;20473;-77
2023/10/09 12:46:51;;;;;;;7.50;3.27;;;25.00;67.20;;;;;;5102379;27;20466;-73
2023/10/09 12:49:24;;;;;;;6.43;3.67;;;25.00;67.20;;;;;;5101492;28;20460;-74
2023/10/09 12:51:53;;;;;;;4.73;3.30;;;25.00;67.20;;;;;;5100442;28;20456;-73
2023/10/09 12:54:26;;;;;;;9.70;3.70;;;25.00;67.30;;;;;;5108136;28;20488;-75
2023/10/09 12:56:57;;;;;;;7.37;4.13;;;25.00;67.30;;;;;;5103681;28;20458;-74
2023/10/09 12:59:26;;;;;;;5.77;3.67;;;25.00;67.30;;;;;;5107982;28;20529;-73
2023/10/09 13:01:57;;;;;;;3.60;2.90;;;25.00;67.40;;;;;;5099812;28;20498;-75
2023/10/09 13:04:31;;;;;;;4.70;3.77;;;25.00;67.40;;;;;;5101663;28;20466;-76
2023/10/09 13:07:04;;;;;;;3.57;2.60;;;25.00;67.40;;;;;;5102350;27;20703;-74
2023/10/09 13:09:35;;;;;;;10.07;3.70;;;25.00;67.40;;;;;;5086449;28;21005;-74
2023/10/09 13:12:07;;;;;;;4.20;3.40;;;25.00;67.40;;;;;;5098090;28;20465;-74
2023/10/09 13:14:35;;;;;;;5.93;3.70;;;25.00;67.40;;;;;;5088717;28;20949;-74
2023/10/09 13:17:10;;;;;;;5.50;4.13;;;25.00;67.40;;;;;;5106031;28;20455;-74
2023/10/09 13:19:38;;;;;;;6.73;3.73;;;25.00;67.40;;;;;;5087923;28;20947;-75
2023/10/09 13:22:12;;;;;;;6.63;3.73;;;25.00;67.40;;;;;;5104178;28;20461;-74
2023/10/09 13:24:42;;;;;;;4.00;3.20;;;25.00;67.30;;;;;;5107752;27;20984;-75
2023/10/09 13:27:13;;;;;;;4.43;3.60;;;25.00;67.30;;;;;;5080536;27;21057;-74
2023/10/09 13:29:41;;;;;;;7.80;3.77;;;25.00;67.30;;;;;;5105859;28;20452;-73
2023/10/09 13:32:14;;;;;;;4.50;3.30;;;25.00;67.10;;;;;;5106319;28;20446;-66
2023/10/09 13:34:45;;;;;;;5.30;3.47;;;25.00;67.00;;;;;;5105000;28;20506;-67
2023/10/09 13:37:14;;;;;;;4.00;3.10;;;25.00;67.20;;;;;;5099127;28;20538;-67
2023/10/09 13:39:53;;;;;;;7.10;3.30;;;25.00;67.30;;;;;;5101565;28;20460;-68
2023/10/09 13:42:25;;;;;;;4.40;2.97;;;25.10;67.30;;;;;;5108097;28;20450;-67
2023/10/09 13:44:55;;;;;;;7.53;3.60;;;25.10;67.30;;;;;;5104385;28;20463;-68
2023/10/09 13:47:31;;;;;;;5.87;3.43;;;25.10;67.30;;;;;;5090716;28;20475;-67
2023/10/09 13:50:00;;;;;;;3.13;2.87;;;25.10;67.30;;;;;;5108926;28;20920;-67
2023/10/09 13:52:30;;;;;;;4.03;3.67;;;25.20;67.30;;;;;;5104891;28;20543;-67
2023/10/09 13:55:15;;;;;;;6.13;3.27;;;25.20;67.30;;;;;;5092503;28;20800;-67
2023/10/09 13:57:45;;;;;;;4.80;2.93;;;25.20;67.40;;;;;;5107594;28;20438;-67
2023/10/09 14:00:19;;;;;;;8.30;3.20;;;25.20;67.30;;;;;;5107396;28;20443;-66
2023/10/09 14:02:51;;;;;;;6.93;3.33;;;25.30;67.40;;;;;;5106290;28;21196;-68
2023/10/09 14:05:20;;;;;;;4.20;3.63;;;25.30;67.40;;;;;;5108998;28;20434;-67
2023/10/09 14:07:48;;;;;;;3.50;3.17;;;25.30;67.40;;;;;;5101949;28;20984;-67
2023/10/09 14:10:18;;;;;;;4.37;2.80;;;25.30;67.40;;;;;;5107169;28;20457;-68
2023/10/09 14:12:53;;;;;;;4.63;3.17;;;25.30;67.30;;;;;;5110273;28;20451;-68
2023/10/09 14:15:22;;;;;;;4.77;3.23;;;25.30;67.30;;;;;;5101864;28;20450;-67
2023/10/09 14:17:55;;;;;;;6.23;3.83;;;25.40;67.20;;;;;;5104953;28;20966;-67
2023/10/09 14:20:30;;;;;;;7.27;3.70;;;25.40;67.20;;;;;;5106000;28;20529;-67
2023/10/09 14:23:06;;;;;;;3.37;3.07;;;25.40;67.10;;;;;;5108796;28;20445;-67
2023/10/09 14:25:37;;;;;;;4.10;3.03;;;25.40;67.00;;;;;;5108913;28;20454;-67
2023/10/09 14:28:08;;;;;;;5.60;3.20;;;25.50;66.90;;;;;;5107080;28;20544;-68
2023/10/09 14:30:42;;;;;;;4.07;2.67;;;25.60;66.80;;;;;;5106008;28;20457;-67
2023/10/09 14:33:14;;;;;;;4.40;2.67;;;25.60;66.60;;;;;;5107491;28;20566;-66